Time;durP1;ratioP1;P1;durP2;ratioP2;P2;SDS_P1;SDS_P2;PMS_P1;PMS_P2;Temp;Humidity;BMP_temperature;BMP_pressure;BME280_temperature;BME280_humidity;BME280_pressure;Samples;Min_cycle;Max_cycle;Signal;HPM_P1;HPM_P2
2023/04/17 00:00:36;;;;;;;38.55;24.45;;;7.40;99.90;;;;;;5030250;28;20040;-39
2023/04/17 00:03:02;;;;;;;39.03;25.50;;;7.40;99.90;;;;;;5033288;28;20080;-41
2023/04/17 00:05:30;;;;;;;38.80;25.65;;;7.40;99.90;;;;;;5030422;28;20176;-42
2023/04/17 00:07:58;;;;;;;40.55;24.67;;;7.40;99.90;;;;;;5030737;28;20049;-40
2023/04/17 00:10:24;;;;;;;39.58;23.92;;;7.40;99.90;;;;;;5028613;28;20033;-37
2023/04/17 00:12:50;;;;;;;36.00;25.05;;;7.40;99.90;;;;;;5032239;28;20048;-43
2023/04/17 00:15:16;;;;;;;39.33;25.77;;;7.50;99.90;;;;;;5032338;28;20057;-36
2023/04/17 00:17:41;;;;;;;40.83;27.17;;;7.40;99.90;;;;;;5030262;28;20064;-38
2023/04/17 00:20:11;;;;;;;39.80;25.60;;;7.40;99.90;;;;;;5032234;28;20094;-37
2023/04/17 00:22:37;;;;;;;40.60;25.70;;;7.30;99.90;;;;;;5029301;28;20106;-42
2023/04/17 00:25:03;;;;;;;46.88;27.65;;;7.30;99.90;;;;;;5033007;28;20137;-43
2023/04/17 00:27:29;;;;;;;47.85;28.48;;;7.30;99.90;;;;;;5032039;28;20072;-37
2023/04/17 00:29:55;;;;;;;50.35;29.67;;;7.30;99.90;;;;;;5030546;28;20471;-41
2023/04/17 00:32:20;;;;;;;48.67;29.67;;;7.20;99.90;;;;;;5029678;28;20065;-43
2023/04/17 00:34:46;;;;;;;46.92;28.05;;;7.30;99.90;;;;;;5033373;28;20041;-41
2023/04/17 00:37:12;;;;;;;46.80;29.30;;;7.20;99.90;;;;;;5032615;28;20041;-44
2023/04/17 00:39:37;;;;;;;51.40;29.65;;;7.20;99.90;;;;;;5033352;28;20045;-38
2023/04/17 00:42:03;;;;;;;55.97;30.48;;;7.20;99.90;;;;;;5032353;28;20344;-39
2023/04/17 00:44:29;;;;;;;50.45;31.30;;;7.20;99.90;;;;;;5033271;28;20409;-36
2023/04/17 00:46:55;;;;;;;54.40;31.75;;;7.30;99.90;;;;;;5030279;28;20045;-41
2023/04/17 00:49:22;;;;;;;55.78;31.23;;;7.20;99.90;;;;;;5031018;28;20526;-45
2023/04/17 00:51:48;;;;;;;55.65;31.55;;;7.30;99.90;;;;;;5032429;28;20472;-40
2023/04/17 00:54:14;;;;;;;58.72;30.88;;;7.30;99.90;;;;;;5032723;28;20146;-47
2023/04/17 00:56:42;;;;;;;58.72;31.52;;;7.30;99.90;;;;;;5032178;28;20122;-38
2023/04/17 00:59:11;;;;;;;49.55;28.95;;;7.30;99.90;;;;;;5031162;28;20045;-41
2023/04/17 01:01:37;;;;;;;54.58;31.60;;;7.30;99.90;;;;;;5031717;28;20049;-40
2023/04/17 01:04:04;;;;;;;54.40;31.30;;;7.30;99.90;;;;;;5031553;28;20045;-42
2023/04/17 01:06:30;;;;;;;52.83;30.38;;;7.30;99.90;;;;;;5031082;28;20553;-35
2023/04/17 01:08:56;;;;;;;51.55;29.48;;;7.30;99.90;;;;;;5032368;28;20550;-39
2023/04/17 01:11:22;;;;;;;53.08;30.25;;;7.30;99.90;;;;;;5031928;28;20075;-41
2023/04/17 01:13:51;;;;;;;54.40;30.92;;;7.30;99.90;;;;;;5036315;28;20048;-44
2023/04/17 01:16:17;;;;;;;54.63;30.38;;;7.30;99.90;;;;;;5035106;28;20099;-42
2023/04/17 01:18:43;;;;;;;47.50;30.25;;;7.20;99.90;;;;;;5036228;28;20036;-41
2023/04/17 01:21:10;;;;;;;47.33;30.10;;;7.20;99.90;;;;;;5035422;28;20052;-38
2023/04/17 01:23:50;;;;;;;54.58;33.65;;;7.20;99.90;;;;;;5036506;28;20053;-38
2023/04/17 01:26:19;;;;;;;54.78;32.03;;;7.20;99.90;;;;;;5032404;28;20446;-43
2023/04/17 01:28:55;;;;;;;55.13;31.13;;;7.20;99.90;;;;;;5035507;28;20106;-35
2023/04/17 01:31:21;;;;;;;52.85;33.55;;;7.10;99.90;;;;;;5035950;28;20052;-48
2023/04/17 01:33:47;;;;;;;54.50;34.45;;;7.10;99.90;;;;;;5035744;28;20051;-42
2023/04/17 01:36:14;;;;;;;56.28;34.22;;;7.10;99.90;;;;;;5035063;28;20056;-39
2023/04/17 01:38:39;;;;;;;53.08;34.80;;;7.10;99.90;;;;;;5033202;28;20549;-36
2023/04/17 01:41:09;;;;;;;51.35;33.08;;;7.10;99.90;;;;;;5035140;28;20045;-41
2023/04/17 01:43:46;;;;;;;51.67;33.58;;;7.10;99.90;;;;;;5035898;28;20376;-41
2023/04/17 01:46:12;;;;;;;51.92;32.25;;;7.10;99.90;;;;;;5035793;28;20152;-40
2023/04/17 01:48:38;;;;;;;50.35;32.75;;;7.10;99.90;;;;;;5034760;28;20490;-37
2023/04/17 01:51:04;;;;;;;55.05;34.20;;;7.10;99.90;;;;;;5035094;28;20053;-39
2023/04/17 01:53:31;;;;;;;53.83;33.75;;;7.10;99.90;;;;;;5035776;28;20049;-45
2023/04/17 01:55:57;;;;;;;51.78;31.75;;;7.10;99.90;;;;;;5033388;28;20448;-41
2023/04/17 01:58:23;;;;;;;50.25;32.28;;;7.20;99.90;;;;;;5033683;28;20162;-47
2023/04/17 02:00:49;;;;;;;56.08;32.15;;;7.10;99.90;;;;;;5035299;28;20069;-40
2023/04/17 02:03:15;;;;;;;56.63;33.45;;;7.20;99.90;;;;;;5032587;28;20564;-37
2023/04/17 02:05:44;;;;;;;56.42;34.58;;;7.20;99.90;;;;;;5035339;28;20056;-38
2023/04/17 02:08:10;;;;;;;51.60;32.97;;;7.20;99.90;;;;;;5032842;28;20400;-36
2023/04/17 02:10:36;;;;;;;53.28;32.90;;;7.10;99.90;;;;;;5037808;28;20033;-37
2023/04/17 02:13:01;;;;;;;48.78;32.90;;;7.10;99.90;;;;;;5037971;28;20053;-38
2023/04/17 02:15:27;;;;;;;47.97;31.77;;;7.10;99.90;;;;;;5038325;28;20505;-41
2023/04/17 02:17:53;;;;;;;57.78;35.10;;;7.10;99.90;;;;;;5037095;28;20593;-41
2023/04/17 02:20:18;;;;;;;52.13;33.38;;;7.10;99.90;;;;;;5037096;28;20064;-41
2023/04/17 02:22:44;;;;;;;59.22;33.13;;;7.10;99.90;;;;;;5023597;28;20597;-41
2023/04/17 02:25:10;;;;;;;61.20;35.00;;;7.10;99.90;;;;;;5028084;28;20132;-38
2023/04/17 02:27:35;;;;;;;61.10;34.70;;;7.10;99.90;;;;;;5032336;28;20041;-39
2023/04/17 02:30:02;;;;;;;59.22;35.78;;;7.10;99.90;;;;;;5036971;28;20049;-44
2023/04/17 02:32:28;;;;;;;63.20;37.30;;;7.10;99.90;;;;;;5037245;28;20049;-42
2023/04/17 02:34:55;;;;;;;57.88;33.47;;;7.10;99.90;;;;;;5037171;28;20490;-42
2023/04/17 02:37:20;;;;;;;64.88;36.42;;;7.10;99.90;;;;;;5037560;28;20123;-36
2023/04/17 02:39:46;;;;;;;62.60;35.10;;;7.00;99.90;;;;;;5037946;28;20053;-44
2023/04/17 02:42:11;;;;;;;65.68;36.83;;;7.00;99.90;;;;;;5036761;28;20044;-44
2023/04/17 02:44:38;;;;;;;63.97;36.95;;;7.00;99.90;;;;;;5037383;28;20503;-40
2023/04/17 02:47:04;;;;;;;61.20;36.95;;;7.00;99.90;;;;;;5038367;28;20075;-44
2023/04/17 02:49:30;;;;;;;56.95;34.72;;;7.10;99.90;;;;;;5037584;28;20122;-40
2023/04/17 02:51:56;;;;;;;56.17;33.53;;;7.00;99.90;;;;;;5035810;28;20479;-40
2023/04/17 02:54:22;;;;;;;60.03;35.13;;;7.10;99.90;;;;;;5043946;28;20617;-42
2023/04/17 02:56:49;;;;;;;66.13;35.85;;;7.10;99.90;;;;;;5030017;28;20040;-38
2023/04/17 02:59:15;;;;;;;54.85;33.60;;;7.00;99.90;;;;;;5017650;28;20077;-39
2023/04/17 03:01:41;;;;;;;63.13;34.70;;;7.00;99.90;;;;;;5031431;28;20282;-37
2023/04/17 03:04:06;;;;;;;62.58;36.13;;;7.00;99.90;;;;;;5036699;28;20561;-39
2023/04/17 03:06:32;;;;;;;66.00;35.88;;;7.00;99.90;;;;;;5034675;28;20454;-40
2023/04/17 03:08:58;;;;;;;63.28;36.38;;;7.00;99.90;;;;;;5035092;28;20483;-42
2023/04/17 03:11:24;;;;;;;67.18;36.72;;;7.00;99.90;;;;;;5035283;28;20626;-39
2023/04/17 03:13:49;;;;;;;69.75;38.42;;;7.00;99.90;;;;;;5036721;28;20610;-40
2023/04/17 03:16:15;;;;;;;61.70;35.10;;;7.00;99.90;;;;;;5035350;28;20045;-42
2023/04/17 03:18:40;;;;;;;52.90;33.70;;;7.00;99.90;;;;;;5036392;28;20128;-43
2023/04/17 03:21:06;;;;;;;56.40;34.63;;;7.00;99.90;;;;;;5035318;28;20132;-37
2023/04/17 03:23:33;;;;;;;59.50;34.25;;;7.00;99.90;;;;;;5034920;28;20122;-39
2023/04/17 03:25:59;;;;;;;55.75;33.40;;;7.10;99.90;;;;;;5036146;28;20049;-37
2023/04/17 03:28:25;;;;;;;57.60;34.30;;;7.10;99.90;;;;;;5025812;28;20056;-37
2023/04/17 03:30:51;;;;;;;60.08;35.03;;;7.10;99.90;;;;;;5031874;28;20159;-44
2023/04/17 03:33:17;;;;;;;65.72;36.55;;;7.10;99.90;;;;;;5026154;28;20506;-43
2023/04/17 03:35:45;;;;;;;61.67;35.78;;;7.10;99.90;;;;;;5031838;28;20483;-44
2023/04/17 03:38:10;;;;;;;82.53;37.20;;;7.10;99.90;;;;;;5024807;28;20179;-41
2023/04/17 03:40:36;;;;;;;71.63;37.83;;;7.10;99.90;;;;;;5035385;28;20530;-44
2023/04/17 03:43:02;;;;;;;67.68;37.55;;;7.10;99.90;;;;;;5026998;28;20052;-40
2023/04/17 03:45:27;;;;;;;77.55;38.67;;;7.10;99.90;;;;;;5032733;28;20505;-38
2023/04/17 03:47:53;;;;;;;104.57;40.35;;;7.10;99.90;;;;;;5035988;28;20049;-46
2023/04/17 03:50:18;;;;;;;75.70;37.72;;;7.10;99.90;;;;;;5035657;28;20055;-37
2023/04/17 03:52:44;;;;;;;74.85;38.42;;;7.10;99.90;;;;;;5035136;28;20049;-38
2023/04/17 03:55:10;;;;;;;71.40;37.10;;;7.00;99.90;;;;;;5036565;28;20128;-37
2023/04/17 03:57:35;;;;;;;82.82;39.70;;;7.10;99.90;;;;;;5026874;28;20903;-39
2023/04/17 04:00:01;;;;;;;59.22;33.40;;;7.10;99.90;;;;;;5017944;28;20508;-40
2023/04/17 04:02:27;;;;;;;55.08;32.60;;;7.10;99.90;;;;;;5033247;28;20094;-43
2023/04/17 04:04:53;;;;;;;69.45;32.85;;;7.10;99.90;;;;;;5031423;28;20143;-45
2023/04/17 04:07:19;;;;;;;71.85;33.72;;;7.00;99.90;;;;;;5033493;28;20483;-41
2023/04/17 04:09:45;;;;;;;79.88;34.38;;;7.00;99.90;;;;;;5032472;28;20460;-37
2023/04/17 04:12:10;;;;;;;68.00;34.80;;;7.00;99.90;;;;;;5033379;28;20346;-37
2023/04/17 04:14:36;;;;;;;61.58;34.53;;;7.00;99.90;;;;;;5032891;28;20048;-42
2023/04/17 04:17:02;;;;;;;71.57;32.97;;;7.00;99.90;;;;;;5032748;28;20060;-43
2023/04/17 04:19:27;;;;;;;62.00;32.88;;;7.00;99.90;;;;;;5030613;28;20049;-41
2023/04/17 04:21:53;;;;;;;83.53;35.30;;;7.00;99.90;;;;;;5032268;28;20051;-45
2023/04/17 04:24:19;;;;;;;84.88;34.17;;;7.00;99.90;;;;;;5033771;28;20140;-37
2023/04/17 04:26:48;;;;;;;97.82;33.67;;;7.00;99.90;;;;;;5031516;28;20048;-37
2023/04/17 04:29:14;;;;;;;88.93;33.63;;;6.90;99.90;;;;;;5033023;28;20514;-38
2023/04/17 04:31:41;;;;;;;98.53;36.45;;;6.90;99.90;;;;;;5032344;28;20270;-38
2023/04/17 04:34:07;;;;;;;108.00;37.70;;;6.90;99.90;;;;;;5031659;28;20049;-43
2023/04/17 04:36:35;;;;;;;85.85;37.08;;;6.90;99.90;;;;;;5029926;28;20048;-43
2023/04/17 04:39:04;;;;;;;85.43;39.90;;;6.90;99.90;;;;;;5033579;28;20076;-37
2023/04/17 04:41:32;;;;;;;94.95;38.75;;;6.90;99.90;;;;;;5033341;28;20053;-48
2023/04/17 04:44:00;;;;;;;103.93;39.47;;;6.90;99.90;;;;;;5031405;28;20037;-44
2023/04/17 04:46:26;;;;;;;77.50;39.55;;;6.90;99.90;;;;;;5031614;28;20087;-41
2023/04/17 04:48:52;;;;;;;68.55;39.22;;;6.80;99.90;;;;;;5033461;28;20123;-41
2023/04/17 04:51:18;;;;;;;75.85;38.60;;;6.90;99.90;;;;;;5034867;28;20585;-43
2023/04/17 04:53:44;;;;;;;96.60;37.75;;;6.90;99.90;;;;;;5036771;28;20091;-44
2023/04/17 04:56:10;;;;;;;107.00;34.08;;;6.90;99.90;;;;;;5036539;28;20119;-36
2023/04/17 04:58:37;;;;;;;119.93;37.45;;;6.90;99.90;;;;;;5032590;28;20060;-41
2023/04/17 05:01:04;;;;;;;87.97;36.50;;;6.90;99.90;;;;;;5034249;28;20385;-45
2023/04/17 05:03:30;;;;;;;93.82;36.38;;;6.90;99.90;;;;;;5037430;28;20535;-40
2023/04/17 05:05:56;;;;;;;86.18;34.72;;;6.90;99.90;;;;;;5035105;28;20095;-37
2023/04/17 05:08:21;;;;;;;107.30;38.17;;;6.90;99.90;;;;;;5036472;28;20045;-43
2023/04/17 05:10:47;;;;;;;106.68;36.63;;;6.90;99.90;;;;;;5037093;28;20128;-39
2023/04/17 05:13:12;;;;;;;101.22;34.08;;;6.90;99.90;;;;;;5035246;28;20071;-41
2023/04/17 05:15:40;;;;;;;118.53;38.00;;;6.90;99.90;;;;;;5035033;28;20055;-45
2023/04/17 05:18:06;;;;;;;95.80;34.20;;;6.90;99.90;;;;;;5036316;28;20055;-39
2023/04/17 05:20:31;;;;;;;99.90;35.53;;;6.90;99.90;;;;;;5036832;28;20482;-43
2023/04/17 05:22:57;;;;;;;119.30;37.97;;;6.90;99.90;;;;;;5036711;28;20080;-44
2023/04/17 05:25:23;;;;;;;79.15;34.78;;;6.90;99.90;;;;;;5036646;28;20041;-46
2023/04/17 05:27:48;;;;;;;417.73;57.90;;;6.90;99.90;;;;;;5036037;28;20049;-43
2023/04/17 05:30:14;;;;;;;292.25;43.88;;;6.90;99.90;;;;;;5031686;28;20098;-38
2023/04/17 05:32:40;;;;;;;256.60;41.88;;;7.00;99.90;;;;;;5034446;28;20519;-38
2023/04/17 05:35:06;;;;;;;172.75;38.58;;;6.90;99.90;;;;;;5035753;28;20068;-46
2023/04/17 05:37:32;;;;;;;120.32;34.42;;;6.90;99.90;;;;;;5033791;28;20045;-46
2023/04/17 05:39:59;;;;;;;226.35;40.22;;;6.90;99.90;;;;;;5035696;28;20796;-37
2023/04/17 05:42:25;;;;;;;197.13;40.20;;;6.80;99.90;;;;;;5035634;28;20072;-42
2023/04/17 05:44:51;;;;;;;248.10;42.47;;;6.80;99.90;;;;;;5036309;28;20136;-40
2023/04/17 05:47:16;;;;;;;140.85;36.45;;;6.80;99.90;;;;;;5033596;28;20052;-37
2023/04/17 05:49:43;;;;;;;105.32;35.38;;;6.80;99.90;;;;;;5035286;28;20485;-42
2023/04/17 05:52:09;;;;;;;100.47;34.33;;;6.80;99.90;;;;;;5034715;28;20546;-39
2023/04/17 05:54:35;;;;;;;121.60;35.95;;;6.80;99.90;;;;;;5035913;28;20085;-39
2023/04/17 05:57:02;;;;;;;123.03;37.88;;;6.80;99.90;;;;;;5034907;28;20124;-41
2023/04/17 05:59:27;;;;;;;245.25;41.42;;;6.80;99.90;;;;;;5034861;28;20045;-40
2023/04/17 06:01:53;;;;;;;131.23;35.63;;;6.80;99.90;;;;;;5034904;28;20497;-48
2023/04/17 06:04:19;;;;;;;188.02;38.88;;;6.80;99.90;;;;;;5035669;28;20661;-41
2023/04/17 06:06:45;;;;;;;193.10;39.60;;;6.80;99.90;;;;;;5034648;28;20519;-40
2023/04/17 06:09:10;;;;;;;91.55;32.20;;;6.80;99.90;;;;;;5033235;28;20594;-37
2023/04/17 06:11:36;;;;;;;85.70;33.58;;;6.70;99.90;;;;;;5035014;28;20126;-42
2023/04/17 06:14:02;;;;;;;77.65;31.98;;;6.80;99.90;;;;;;5035849;28;20044;-42
2023/04/17 06:16:27;;;;;;;73.72;34.45;;;6.80;99.90;;;;;;5034870;28;20046;-38
2023/04/17 06:18:53;;;;;;;100.53;34.25;;;6.90;99.90;;;;;;5034730;28;20785;-44
2023/04/17 06:21:19;;;;;;;92.47;33.80;;;6.90;99.90;;;;;;5032531;28;20045;-39
2023/04/17 06:23:45;;;;;;;75.75;32.17;;;7.00;99.90;;;;;;5035077;28;20072;-41
2023/04/17 06:26:11;;;;;;;90.38;31.33;;;7.00;99.90;;;;;;5034377;28;20164;-36
2023/04/17 06:28:37;;;;;;;90.30;33.42;;;7.10;99.90;;;;;;5033497;28;20126;-48
2023/04/17 06:31:02;;;;;;;75.68;32.40;;;7.00;99.90;;;;;;5033513;28;20147;-39
2023/04/17 06:33:28;;;;;;;88.40;32.92;;;7.10;99.90;;;;;;5032838;28;20072;-45
2023/04/17 06:35:54;;;;;;;89.13;33.97;;;7.10;99.90;;;;;;5034261;28;20441;-40
2023/04/17 06:38:19;;;;;;;81.35;34.72;;;7.10;99.90;;;;;;5035436;28;20094;-38
2023/04/17 06:40:46;;;;;;;69.38;33.22;;;7.10;99.90;;;;;;5033567;28;20048;-42
2023/04/17 06:43:14;;;;;;;66.70;33.38;;;7.10;99.90;;;;;;5034427;28;20048;-44
2023/04/17 06:45:41;;;;;;;71.30;34.80;;;7.10;99.90;;;;;;5033254;28;20048;-40
2023/04/17 06:48:07;;;;;;;69.65;32.85;;;7.10;99.90;;;;;;5030779;28;20451;-38
2023/04/17 06:50:33;;;;;;;94.60;32.92;;;7.20;99.90;;;;;;5033711;28;20491;-45
2023/04/17 06:52:59;;;;;;;226.68;40.10;;;7.20;99.90;;;;;;5032964;28;20077;-43
2023/04/17 06:55:25;;;;;;;74.28;33.03;;;7.20;99.90;;;;;;5032229;28;20056;-41
2023/04/17 06:57:51;;;;;;;133.23;35.00;;;7.20;99.90;;;;;;5031361;28;20048;-45
2023/04/17 07:00:17;;;;;;;70.13;32.58;;;7.40;99.90;;;;;;5032382;28;20044;-37
2023/04/17 07:02:43;;;;;;;61.40;32.47;;;7.40;99.90;;;;;;5032743;28;20053;-38
2023/04/17 07:05:09;;;;;;;77.65;32.47;;;7.50;99.90;;;;;;5034434;28;20072;-42
2023/04/17 07:07:35;;;;;;;41.55;29.08;;;7.70;99.90;;;;;;5033396;28;20103;-43
2023/04/17 07:10:02;;;;;;;45.40;29.65;;;7.70;99.90;;;;;;5031915;28;20505;-39
2023/04/17 07:12:27;;;;;;;51.35;31.25;;;7.70;99.90;;;;;;5032438;28;20044;-40
2023/04/17 07:14:53;;;;;;;52.42;30.80;;;7.70;99.90;;;;;;5034417;28;20743;-48
2023/04/17 07:17:19;;;;;;;55.58;31.00;;;7.70;99.90;;;;;;5033111;28;20060;-38
2023/04/17 07:19:45;;;;;;;51.95;30.80;;;7.70;99.90;;;;;;5033392;28;20049;-36
2023/04/17 07:22:10;;;;;;;44.90;28.98;;;7.70;99.90;;;;;;5034401;28;20434;-37
2023/04/17 07:24:36;;;;;;;43.42;28.45;;;7.80;99.90;;;;;;5031180;28;20061;-43
2023/04/17 07:27:02;;;;;;;47.55;31.38;;;7.90;99.90;;;;;;5033454;28;20044;-43
2023/04/17 07:29:28;;;;;;;57.67;32.67;;;8.00;99.90;;;;;;5029794;28;20127;-40
2023/04/17 07:31:54;;;;;;;59.67;32.72;;;8.10;99.90;;;;;;5031462;28;20538;-41
2023/04/17 07:34:20;;;;;;;46.40;31.88;;;8.10;99.90;;;;;;5033838;28;20053;-36
2023/04/17 07:36:48;;;;;;;45.95;29.80;;;8.20;99.90;;;;;;5032130;28;20056;-40
2023/04/17 07:39:14;;;;;;;48.72;31.98;;;8.30;99.90;;;;;;5032738;28;20053;-41
2023/04/17 07:41:39;;;;;;;44.70;31.42;;;8.30;99.90;;;;;;5032071;28;20378;-39
2023/04/17 07:44:05;;;;;;;42.15;30.52;;;8.40;99.90;;;;;;5032504;28;20471;-40
2023/04/17 07:46:31;;;;;;;42.65;31.05;;;8.50;99.90;;;;;;5033164;28;20044;-38
2023/04/17 07:48:57;;;;;;;40.83;30.23;;;8.50;99.90;;;;;;5033140;28;20146;-39
2023/04/17 07:51:23;;;;;;;42.75;29.65;;;8.60;99.90;;;;;;5032144;28;20052;-45
2023/04/17 07:53:49;;;;;;;46.20;31.70;;;8.70;99.90;;;;;;5033379;28;20648;-40
2023/04/17 07:56:15;;;;;;;45.47;32.85;;;8.90;99.90;;;;;;5031090;28;20048;-39
2023/04/17 07:58:41;;;;;;;41.53;30.90;;;8.90;99.90;;;;;;5031288;28;20088;-39
2023/04/17 08:01:07;;;;;;;41.25;32.15;;;8.80;99.90;;;;;;5032079;28;20076;-38
2023/04/17 08:03:32;;;;;;;46.20;32.72;;;8.90;99.90;;;;;;5031796;28;20445;-45
2023/04/17 08:05:58;;;;;;;43.25;31.70;;;9.00;99.90;;;;;;5014413;28;20453;-46
2023/04/17 08:08:24;;;;;;;43.38;32.30;;;9.00;99.90;;;;;;5030382;28;20052;-41
2023/04/17 08:10:50;;;;;;;44.63;32.72;;;9.00;99.90;;;;;;5032332;28;20040;-36
2023/04/17 08:13:16;;;;;;;50.45;34.60;;;9.00;99.90;;;;;;5033236;28;20133;-40
2023/04/17 08:15:42;;;;;;;45.03;32.33;;;9.10;99.90;;;;;;5032374;28;20430;-47
2023/04/17 08:18:10;;;;;;;46.42;32.38;;;9.00;99.90;;;;;;5032976;28;20056;-40
2023/04/17 08:20:36;;;;;;;40.17;31.02;;;9.10;99.90;;;;;;5032645;28;20567;-40
2023/04/17 08:23:03;;;;;;;44.03;30.67;;;9.10;99.90;;;;;;5036976;28;20048;-48
2023/04/17 08:25:29;;;;;;;43.50;31.00;;;9.20;99.90;;;;;;5034565;28;20376;-41
2023/04/17 08:27:55;;;;;;;41.72;30.60;;;9.30;99.90;;;;;;5034603;28;20044;-47
2023/04/17 08:30:21;;;;;;;38.90;29.02;;;9.40;99.90;;;;;;5036428;28;20142;-44
2023/04/17 08:32:49;;;;;;;39.22;29.10;;;9.40;99.90;;;;;;5036887;28;20464;-40
2023/04/17 08:35:16;;;;;;;37.95;27.83;;;9.40;99.90;;;;;;5036949;28;20053;-37
2023/04/17 08:37:43;;;;;;;36.67;28.38;;;9.50;99.90;;;;;;5035089;28;20040;-44
2023/04/17 08:40:10;;;;;;;38.03;28.70;;;9.80;99.90;;;;;;5035877;28;20057;-41
2023/04/17 08:42:36;;;;;;;36.28;27.42;;;10.00;99.90;;;;;;5033972;28;20052;-40
2023/04/17 08:45:08;;;;;;;35.25;27.63;;;10.10;99.90;;;;;;5036517;28;20055;-42
2023/04/17 08:47:34;;;;;;;38.13;26.60;;;10.00;99.90;;;;;;5034153;28;20099;-46
2023/04/17 08:50:12;;;;;;;37.00;27.40;;;10.10;99.90;;;;;;5034827;28;20472;-44
2023/04/17 08:52:56;;;;;;;32.83;26.08;;;10.10;99.90;;;;;;5033927;28;20052;-41
2023/04/17 08:55:27;;;;;;;33.47;25.20;;;10.30;99.90;;;;;;5037335;28;20626;-41
2023/04/17 08:57:54;;;;;;;31.25;23.88;;;10.50;99.90;;;;;;5034684;28;20044;-44
2023/04/17 09:00:27;;;;;;;33.20;24.83;;;10.70;99.90;;;;;;5035012;28;20087;-39
2023/04/17 09:02:54;;;;;;;30.92;25.73;;;10.90;99.90;;;;;;5036203;28;20041;-42
2023/04/17 09:05:22;;;;;;;31.05;24.92;;;11.00;99.90;;;;;;5036712;28;20044;-44
2023/04/17 09:08:14;;;;;;;30.02;22.73;;;11.20;99.90;;;;;;5035204;28;20048;-44
2023/04/17 09:10:44;;;;;;;25.25;22.02;;;11.50;99.90;;;;;;5035051;28;20156;-42
2023/04/17 09:13:13;;;;;;;27.75;23.02;;;11.50;99.90;;;;;;5035568;28;20052;-45
2023/04/17 09:15:40;;;;;;;28.75;22.98;;;11.40;99.90;;;;;;5032919;28;20453;-39
2023/04/17 09:18:23;;;;;;;28.90;24.35;;;11.20;99.90;;;;;;5035818;28;20044;-39
2023/04/17 09:20:50;;;;;;;27.95;24.80;;;11.50;99.90;;;;;;5032927;28;20232;-40
2023/04/17 09:23:16;;;;;;;30.65;25.33;;;11.40;99.90;;;;;;5033421;28;20403;-36
2023/04/17 09:25:42;;;;;;;29.70;25.58;;;11.40;99.90;;;;;;5035127;28;20049;-42
2023/04/17 09:28:13;;;;;;;38.65;25.77;;;11.60;99.90;;;;;;5035327;28;20040;-41
2023/04/17 09:30:40;;;;;;;29.35;24.50;;;11.80;99.90;;;;;;5033383;28;20048;-44
2023/04/17 09:33:08;;;;;;;30.48;26.35;;;12.00;99.90;;;;;;5032145;28;20060;-42
2023/04/17 09:35:39;;;;;;;28.30;25.23;;;12.20;99.90;;;;;;5034145;28;20045;-48
2023/04/17 09:38:05;;;;;;;29.70;25.50;;;12.40;99.90;;;;;;5035072;28;20098;-42
2023/04/17 09:40:39;;;;;;;29.08;25.15;;;12.70;99.90;;;;;;5034492;28;20049;-41
2023/04/17 09:43:07;;;;;;;28.45;25.33;;;12.80;99.90;;;;;;5033582;28;20072;-41
2023/04/17 09:45:35;;;;;;;30.00;25.55;;;13.00;99.90;;;;;;5034995;28;20044;-40
2023/04/17 09:48:06;;;;;;;28.83;25.85;;;13.00;99.90;;;;;;5035497;28;20499;-37
2023/04/17 09:50:33;;;;;;;27.38;24.52;;;13.10;99.90;;;;;;5032036;28;20049;-42
2023/04/17 09:52:58;;;;;;;29.35;25.40;;;13.10;99.90;;;;;;5033538;28;20049;-42
2023/04/17 09:55:31;;;;;;;29.48;26.08;;;13.10;99.90;;;;;;5033427;28;20060;-44
2023/04/17 09:58:00;;;;;;;28.20;25.30;;;13.10;99.90;;;;;;5035778;28;20037;-41
2023/04/17 10:00:26;;;;;;;27.10;24.33;;;13.20;99.90;;;;;;5032593;28;20124;-48
2023/04/17 10:02:53;;;;;;;26.83;24.13;;;13.30;99.90;;;;;;5033951;28;20045;-46
2023/04/17 10:05:25;;;;;;;27.75;24.60;;;13.30;99.90;;;;;;5032408;28;20080;-49
2023/04/17 10:07:51;;;;;;;25.83;23.08;;;13.50;99.90;;;;;;5016913;28;20049;-44
2023/04/17 10:10:26;;;;;;;27.25;24.45;;;13.40;99.90;;;;;;5034789;28;20128;-41
2023/04/17 10:13:12;;;;;;;24.55;21.98;;;13.80;99.90;;;;;;5032339;28;20056;-47
2023/04/17 10:15:38;;;;;;;24.15;21.73;;;14.10;99.90;;;;;;5033883;28;20052;-41
2023/04/17 10:18:21;;;;;;;25.25;22.73;;;14.20;99.90;;;;;;5034547;28;20033;-46
2023/04/17 10:20:48;;;;;;;25.63;22.90;;;14.50;99.90;;;;;;5033029;28;20047;-43
2023/04/17 10:23:28;;;;;;;24.00;21.48;;;14.60;99.90;;;;;;5033543;28;20056;-40
2023/04/17 10:26:28;;;;;;;23.85;21.48;;;14.70;99.90;;;;;;5032076;28;20093;-38
2023/04/17 10:28:56;;;;;;;24.48;21.63;;;14.80;99.90;;;;;;5029378;28;20472;-43
2023/04/17 10:31:42;;;;;;;23.75;21.35;;;14.70;99.90;;;;;;5042847;28;20049;-41
2023/04/17 10:34:37;;;;;;;23.45;21.10;;;14.70;99.90;;;;;;5031573;28;20141;-43
2023/04/17 10:37:03;;;;;;;24.48;21.92;;;14.50;99.90;;;;;;5030247;28;20040;-39
2023/04/17 10:39:47;;;;;;;24.25;21.75;;;14.60;99.90;;;;;;5029824;28;20040;-42
2023/04/17 10:42:18;;;;;;;24.00;21.58;;;14.40;99.90;;;;;;5029409;28;20045;-37
2023/04/17 10:44:48;;;;;;;25.00;22.50;;;14.40;99.90;;;;;;5028697;28;20076;-43
2023/04/17 10:47:14;;;;;;;25.92;23.23;;;14.60;99.90;;;;;;5029147;28;20079;-44
2023/04/17 10:49:54;;;;;;;24.90;22.35;;;14.40;99.90;;;;;;5032790;28;20044;-43
2023/04/17 10:52:32;;;;;;;28.05;23.35;;;14.30;99.90;;;;;;5048343;28;20134;-44
2023/04/17 10:55:07;;;;;;;23.23;20.45;;;14.50;99.90;;;;;;5032097;28;20715;-42
2023/04/17 10:57:52;;;;;;;24.15;21.13;;;14.70;99.90;;;;;;5032576;28;20178;-45
2023/04/17 11:00:20;;;;;;;22.85;20.05;;;14.60;99.90;;;;;;5045036;28;20096;-42
2023/04/17 11:02:49;;;;;;;21.70;19.50;;;14.70;99.90;;;;;;5031404;28;20044;-39
2023/04/17 11:05:19;;;;;;;20.50;18.50;;;15.00;99.90;;;;;;5033958;28;20049;-43
2023/04/17 11:07:49;;;;;;;20.92;18.48;;;14.90;99.90;;;;;;5033816;28;20465;-41
2023/04/17 11:10:19;;;;;;;20.35;18.33;;;15.10;99.90;;;;;;5033052;28;20072;-37
2023/04/17 11:12:50;;;;;;;21.70;19.40;;;15.30;99.90;;;;;;5033513;28;20044;-37
2023/04/17 11:15:15;;;;;;;21.23;19.02;;;15.40;99.90;;;;;;5033763;28;20048;-37
2023/04/17 11:17:47;;;;;;;25.38;20.60;;;15.40;99.90;;;;;;5032978;28;20951;-37
2023/04/17 11:20:17;;;;;;;21.15;19.15;;;15.60;99.90;;;;;;5031141;28;20048;-41
2023/04/17 11:22:44;;;;;;;20.08;18.13;;;15.30;99.90;;;;;;5032886;28;20105;-43
2023/04/17 11:25:19;;;;;;;21.48;19.48;;;15.40;99.90;;;;;;5033235;28;20404;-39
2023/04/17 11:27:45;;;;;;;20.48;18.58;;;15.10;99.90;;;;;;5032193;28;20048;-40
2023/04/17 11:30:11;;;;;;;22.75;20.45;;;15.00;99.90;;;;;;5033042;28;20037;-37
2023/04/17 11:32:36;;;;;;;22.02;19.33;;;15.10;99.90;;;;;;5033305;28;20048;-38
2023/04/17 11:35:03;;;;;;;21.10;18.90;;;15.10;99.90;;;;;;5033584;28;20458;-42
2023/04/17 11:37:29;;;;;;;20.67;18.65;;;15.10;99.90;;;;;;5032856;28;20071;-44
2023/04/17 11:40:06;;;;;;;19.27;17.27;;;15.30;99.90;;;;;;5032866;28;20120;-38
2023/04/17 11:42:32;;;;;;;20.02;17.85;;;15.60;99.90;;;;;;5033396;28;20060;-44
2023/04/17 11:45:06;;;;;;;20.42;18.42;;;15.50;99.90;;;;;;5032011;28;20420;-44
2023/04/17 11:47:32;;;;;;;19.13;16.55;;;15.60;99.90;;;;;;5033133;28;20082;-47
2023/04/17 11:49:57;;;;;;;18.80;16.90;;;15.60;99.90;;;;;;5031026;28;19929;-43
2023/04/17 11:52:23;;;;;;;19.55;15.85;;;15.70;99.90;;;;;;5033786;28;20387;-49
2023/04/17 11:54:56;;;;;;;21.30;17.58;;;15.70;99.90;;;;;;5032905;28;20037;-46
2023/04/17 11:57:22;;;;;;;18.83;16.77;;;15.80;99.90;;;;;;5032678;28;20146;-45
2023/04/17 11:59:48;;;;;;;22.98;16.75;;;15.90;99.90;;;;;;5031464;28;20041;-43
2023/04/17 12:02:15;;;;;;;18.35;16.50;;;16.00;99.90;;;;;;5031439;28;20465;-46
2023/04/17 12:04:40;;;;;;;19.52;17.08;;;16.20;99.90;;;;;;5032829;28;20044;-39
2023/04/17 12:07:07;;;;;;;18.52;16.67;;;16.30;99.90;;;;;;5032575;28;20454;-38
2023/04/17 12:09:34;;;;;;;18.95;17.08;;;16.30;99.90;;;;;;5030261;28;20045;-43
2023/04/17 12:12:03;;;;;;;20.33;17.00;;;16.30;99.90;;;;;;5032948;28;20503;-38
2023/04/17 12:14:29;;;;;;;20.10;17.98;;;16.40;99.90;;;;;;5032480;28;20464;-46
2023/04/17 12:16:55;;;;;;;22.02;19.27;;;16.40;99.90;;;;;;5029106;28;20094;-40
2023/04/17 12:19:20;;;;;;;20.20;18.15;;;16.60;99.90;;;;;;5030535;28;20111;-51
2023/04/17 12:21:46;;;;;;;25.70;19.25;;;16.80;99.90;;;;;;5032374;28;20388;-38
2023/04/17 12:24:13;;;;;;;23.15;18.33;;;16.60;99.90;;;;;;5028700;28;20130;-40
2023/04/17 12:26:46;;;;;;;20.27;18.10;;;15.80;99.90;;;;;;5030033;28;20068;-44
2023/04/17 12:29:12;;;;;;;;;;;15.50;99.90;;;;;;5030171;28;20571;-40
2023/04/17 12:31:37;;;;;;;22.90;19.02;;;15.50;99.90;;;;;;5031949;28;19936;-44
2023/04/17 12:34:03;;;;;;;21.83;19.52;;;15.40;99.90;;;;;;5031838;28;20045;-42